createdAt,value
2022-12-25T00:03:53.052Z,11.60
2022-12-25T00:08:56.161Z,10.10
2022-12-25T00:13:59.174Z,11.00
2022-12-25T00:19:02.304Z,9.90
2022-12-25T00:24:05.662Z,13.30
2022-12-25T00:29:13.010Z,11.90
2022-12-25T00:34:16.011Z,13.20
2022-12-25T00:39:19.210Z,11.90
2022-12-25T00:44:22.226Z,15.50
2022-12-25T00:49:25.453Z,10.10
2022-12-25T00:54:28.751Z,10.30
2022-12-25T00:59:33.537Z,9.70
2022-12-25T01:04:37.752Z,11.80
2022-12-25T01:09:59.273Z,11.60
2022-12-25T01:15:02.585Z,11.40
2022-12-25T01:20:06.350Z,10.90
2022-12-25T01:25:10.753Z,11.90
2022-12-25T01:30:13.856Z,14.10
2022-12-25T01:35:16.968Z,13.40
2022-12-25T01:40:20.189Z,13.10
2022-12-25T01:45:40.969Z,20.50
2022-12-25T01:50:50.047Z,12.00
2022-12-25T01:55:59.405Z,12.30
2022-12-25T02:01:02.543Z,13.20
2022-12-25T02:06:06.829Z,11.20
2022-12-25T02:11:29.833Z,13.50
2022-12-25T02:16:56.760Z,11.90
2022-12-25T02:22:46.600Z,11.50
2022-12-25T02:28:07.631Z,13.00
2022-12-25T02:33:58.677Z,13.10
2022-12-25T02:39:24.200Z,14.40
2022-12-25T02:44:48.093Z,15.10
2022-12-25T02:50:12.941Z,15.80
2022-12-25T02:55:40.494Z,13.40
2022-12-25T03:01:07.274Z,15.10
2022-12-25T03:06:30.042Z,12.40
2022-12-25T03:11:33.352Z,13.40
2022-12-25T03:16:51.891Z,14.60
2022-12-25T03:22:14.790Z,14.10
2022-12-25T03:27:17.899Z,13.80
2022-12-25T03:32:27.152Z,14.20
2022-12-25T03:37:33.026Z,13.50
2022-12-25T03:43:05.623Z,13.30
2022-12-25T03:48:13.624Z,15.50
2022-12-25T03:53:43.483Z,13.30
2022-12-25T03:59:22.904Z,13.60
2022-12-25T04:04:45.709Z,13.60
2022-12-25T04:10:07.250Z,12.80
2022-12-25T04:15:29.556Z,12.40
2022-12-25T04:20:51.461Z,11.50
2022-12-25T04:26:16.074Z,13.10
2022-12-25T04:31:37.877Z,12.40
2022-12-25T04:36:41.134Z,13.70
2022-12-25T04:41:44.240Z,16.00
2022-12-25T04:46:47.271Z,15.00
2022-12-25T04:51:50.461Z,14.90
2022-12-25T04:56:53.671Z,18.20
2022-12-25T05:01:56.726Z,15.10
2022-12-25T05:06:59.894Z,17.10
2022-12-25T05:12:03.106Z,16.80
2022-12-25T05:17:08.048Z,12.70
2022-12-25T05:22:11.069Z,14.30
2022-12-25T05:27:15.359Z,21.20
2022-12-25T05:32:18.302Z,17.00
2022-12-25T05:37:21.308Z,17.50
2022-12-25T05:42:24.414Z,17.50
2022-12-25T05:47:27.318Z,17.20
2022-12-25T05:52:34.834Z,18.20
2022-12-25T05:57:37.735Z,16.90
2022-12-25T06:02:40.754Z,18.20
2022-12-25T06:07:43.951Z,21.20
2022-12-25T06:12:46.962Z,18.60
2022-12-25T06:17:49.967Z,21.40
2022-12-25T06:22:53.174Z,19.90
2022-12-25T06:27:56.395Z,20.00
2022-12-25T06:33:00.501Z,18.80
2022-12-25T06:38:03.533Z,19.70
2022-12-25T06:43:06.532Z,20.20
2022-12-25T06:48:09.508Z,24.00
2022-12-25T06:53:12.647Z,18.60
2022-12-25T06:58:15.766Z,24.20
2022-12-25T07:03:21.744Z,30.90
2022-12-25T07:08:24.738Z,23.10
2022-12-25T07:13:27.843Z,20.70
2022-12-25T07:18:31.896Z,20.80
2022-12-25T07:23:35.375Z,24.90
2022-12-25T07:28:38.941Z,21.60
2022-12-25T07:33:42.432Z,23.30
2022-12-25T07:38:49.819Z,18.40
2022-12-25T07:43:54.061Z,26.00
2022-12-25T07:48:57.087Z,22.80
2022-12-25T07:54:00.134Z,42.80
2022-12-25T07:59:03.210Z,31.90
2022-12-25T08:04:06.469Z,26.90
2022-12-25T08:09:12.907Z,29.70
2022-12-25T08:14:15.916Z,42.00
2022-12-25T08:19:19.655Z,22.10
2022-12-25T08:24:24.954Z,23.20
2022-12-25T08:29:29.344Z,25.70
2022-12-25T08:34:33.013Z,24.90
2022-12-25T08:39:36.470Z,53.60
2022-12-25T08:44:39.585Z,31.60
2022-12-25T08:49:42.657Z,29.10
2022-12-25T08:54:47.227Z,29.00
2022-12-25T08:59:50.489Z,33.60
2022-12-25T09:04:53.544Z,49.20
2022-12-25T09:09:56.669Z,35.00
2022-12-25T09:15:00.121Z,38.80
2022-12-25T09:20:03.814Z,99.00
2022-12-25T09:25:07.581Z,70.80
2022-12-25T09:30:11.459Z,66.20
2022-12-25T09:35:17.936Z,42.80
2022-12-25T09:40:30.366Z,36.00
2022-12-25T09:45:38.286Z,68.30
2022-12-25T09:50:48.572Z,53.10
2022-12-25T09:56:27.390Z,36.50
2022-12-25T10:01:30.404Z,28.90
2022-12-25T10:06:33.521Z,19.50
2022-12-25T10:12:17.805Z,24.70
2022-12-25T10:17:52.665Z,20.50
2022-12-25T10:23:01.578Z,18.50
2022-12-25T10:28:14.675Z,39.60
2022-12-25T10:33:17.649Z,25.80
2022-12-25T10:38:20.752Z,23.80
2022-12-25T10:43:45.569Z,24.90
2022-12-25T10:48:53.967Z,27.40
2022-12-25T10:53:58.249Z,28.60
2022-12-25T10:59:10.781Z,26.60
2022-12-25T11:04:23.520Z,22.90
2022-12-25T11:09:27.723Z,25.50
2022-12-25T11:14:31.480Z,23.70
2022-12-25T11:19:35.092Z,21.10
2022-12-25T11:24:38.189Z,20.30
2022-12-25T11:29:44.071Z,16.30
2022-12-25T11:34:49.149Z,28.80
2022-12-25T11:39:52.226Z,18.00
2022-12-25T11:45:05.479Z,20.90
2022-12-25T11:50:31.007Z,23.60
2022-12-25T11:55:39.953Z,24.20
2022-12-25T12:00:46.652Z,33.60
2022-12-25T12:05:57.204Z,22.50
2022-12-25T12:11:35.684Z,21.90
2022-12-25T12:16:39.030Z,22.40
2022-12-25T12:21:49.472Z,22.50
2022-12-25T12:27:16.916Z,18.50
2022-12-25T12:32:50.544Z,21.70
2022-12-25T12:38:23.671Z,16.70
2022-12-25T12:43:31.919Z,17.50
2022-12-25T12:48:43.307Z,17.00
2022-12-25T12:53:48.681Z,17.30
2022-12-25T12:58:53.950Z,17.00
2022-12-25T13:04:15.620Z,25.60
2022-12-25T13:09:39.303Z,28.90
2022-12-25T13:14:50.936Z,20.60
2022-12-25T13:20:05.804Z,18.20
2022-12-25T13:25:24.600Z,18.10
2022-12-25T13:30:33.491Z,19.50
2022-12-25T13:35:44.566Z,19.40
2022-12-25T13:41:14.441Z,20.40
2022-12-25T13:46:28.040Z,24.50
2022-12-25T13:51:34.571Z,15.30
2022-12-25T13:56:53.435Z,19.30
2022-12-25T14:02:04.280Z,19.90
2022-12-25T14:07:13.336Z,21.30
2022-12-25T14:17:27.912Z,22.20
2022-12-25T14:22:35.996Z,19.50
2022-12-25T14:27:43.504Z,19.20
2022-12-25T14:32:54.953Z,18.70
2022-12-25T14:38:02.314Z,22.40
2022-12-25T14:43:25.754Z,18.60
2022-12-25T14:48:33.152Z,22.90
2022-12-25T14:53:50.093Z,21.70
2022-12-25T14:59:00.905Z,22.10
2022-12-25T15:04:25.066Z,21.70
2022-12-25T15:09:30.142Z,21.90
2022-12-25T15:14:36.502Z,21.80
2022-12-25T15:19:39.657Z,20.40
2022-12-25T15:24:42.631Z,20.30
2022-12-25T15:30:09.265Z,18.60
2022-12-25T15:35:16.590Z,21.20
2022-12-25T15:40:21.598Z,19.20
2022-12-25T15:45:27.818Z,18.10
2022-12-25T15:50:32.752Z,19.50
2022-12-25T15:55:36.912Z,17.70
2022-12-25T16:00:39.918Z,20.90
2022-12-25T16:05:42.940Z,19.40
2022-12-25T16:10:46.227Z,18.30
2022-12-25T16:15:49.305Z,17.70
2022-12-25T16:20:53.862Z,23.10
2022-12-25T16:25:56.824Z,18.20
2022-12-25T16:30:59.938Z,21.20
2022-12-25T16:36:03.031Z,26.90
2022-12-25T16:41:06.211Z,25.10
2022-12-25T16:46:15.534Z,26.00
2022-12-25T16:51:20.969Z,25.60
2022-12-25T16:56:28.668Z,31.60
2022-12-25T17:01:31.963Z,27.60
2022-12-25T17:06:35.867Z,26.70
2022-12-25T17:11:38.903Z,31.30
2022-12-25T17:16:41.997Z,30.50
2022-12-25T17:21:45.631Z,31.10
2022-12-25T17:26:48.869Z,33.30
2022-12-25T17:31:52.128Z,36.50
2022-12-25T17:36:55.267Z,29.60
2022-12-25T17:41:58.586Z,36.00
2022-12-25T17:47:01.618Z,35.00
2022-12-25T17:52:04.888Z,34.10
2022-12-25T17:57:08.004Z,36.60
2022-12-25T18:02:12.151Z,38.50
2022-12-25T18:07:16.169Z,30.50
2022-12-25T18:12:19.277Z,35.70
2022-12-25T18:17:22.284Z,31.60
2022-12-25T18:22:25.397Z,32.30
2022-12-25T18:27:28.600Z,37.70
2022-12-25T18:32:31.846Z,31.80
2022-12-25T18:37:40.020Z,35.10
2022-12-25T18:42:46.455Z,34.20
2022-12-25T18:47:49.434Z,34.80
2022-12-25T18:52:52.574Z,33.80
2022-12-25T18:57:56.433Z,38.90
2022-12-25T19:02:59.773Z,39.40
2022-12-25T19:08:03.509Z,37.20
2022-12-25T19:13:07.033Z,38.40
2022-12-25T19:18:10.743Z,41.40
2022-12-25T19:23:13.753Z,40.00
2022-12-25T19:28:17.987Z,34.50
2022-12-25T19:33:22.931Z,39.00
2022-12-25T19:38:26.215Z,38.30
2022-12-25T19:43:38.174Z,47.40
2022-12-25T19:48:41.292Z,36.30
2022-12-25T19:53:45.179Z,41.10
2022-12-25T19:58:48.321Z,38.70
2022-12-25T20:03:52.121Z,38.30
2022-12-25T20:08:57.881Z,36.50
2022-12-25T20:14:00.922Z,35.90
2022-12-25T20:19:04.437Z,39.40
2022-12-25T20:24:10.433Z,40.60
2022-12-25T20:29:13.531Z,41.10
2022-12-25T20:34:16.533Z,36.80
2022-12-25T20:39:19.744Z,38.20
2022-12-25T20:44:22.751Z,37.80
2022-12-25T20:49:26.071Z,33.80
2022-12-25T20:54:29.066Z,32.70
2022-12-25T20:59:37.351Z,34.50
2022-12-25T21:04:41.342Z,33.80
2022-12-25T21:09:44.539Z,34.10
2022-12-25T21:14:47.547Z,34.90
2022-12-25T21:19:50.959Z,34.70
2022-12-25T21:24:54.075Z,34.20
2022-12-25T21:29:57.182Z,31.90
2022-12-25T21:35:00.291Z,31.30
2022-12-25T21:40:03.507Z,26.70
2022-12-25T21:45:07.286Z,25.60
2022-12-25T21:50:32.428Z,30.40
2022-12-25T21:55:37.815Z,27.30
2022-12-25T22:00:41.022Z,30.10
2022-12-25T22:06:02.867Z,27.10
2022-12-25T22:11:05.784Z,30.20
2022-12-25T22:16:27.622Z,30.30
2022-12-25T22:21:30.730Z,29.50
2022-12-25T22:26:35.353Z,28.70
2022-12-25T22:31:42.705Z,27.10
2022-12-25T22:36:49.881Z,29.30
2022-12-25T22:41:57.607Z,27.20
2022-12-25T22:47:00.818Z,25.00
2022-12-25T22:52:04.521Z,24.10
2022-12-25T22:57:07.552Z,25.10
2022-12-25T23:02:10.733Z,27.90
2022-12-25T23:07:14.692Z,20.90
2022-12-25T23:12:36.431Z,24.70
2022-12-25T23:17:58.384Z,24.80
2022-12-25T23:23:20.538Z,23.60
2022-12-25T23:28:56.101Z,26.00
2022-12-25T23:33:59.728Z,24.30
2022-12-25T23:39:09.471Z,24.90
2022-12-25T23:44:13.937Z,25.20
2022-12-25T23:49:17.155Z,22.60
2022-12-25T23:54:23.340Z,25.70
2022-12-25T23:59:28.448Z,30.30
